sensor_id;sensor_type;location;lat;lon;timestamp;P1;durP1;ratioP1;P2;durP2;ratioP2
15412;SDS011;7805;49.554;7.632;2023-05-18T00:02:03;9.70;;;2.90;;
15412;SDS011;7805;49.554;7.632;2023-05-18T00:04:31;7.03;;;2.80;;
15412;SDS011;7805;49.554;7.632;2023-05-18T00:06:58;4.33;;;2.67;;
15412;SDS011;7805;49.554;7.632;2023-05-18T00:09:31;10.10;;;3.37;;
15412;SDS011;7805;49.554;7.632;2023-05-18T00:11:58;7.27;;;3.03;;
15412;SDS011;7805;49.554;7.632;2023-05-18T00:14:24;9.07;;;3.73;;
15412;SDS011;7805;49.554;7.632;2023-05-18T00:16:51;7.03;;;2.80;;
15412;SDS011;7805;49.554;7.632;2023-05-18T00:19:22;9.17;;;3.27;;
15412;SDS011;7805;49.554;7.632;2023-05-18T00:21:49;9.13;;;3.23;;
15412;SDS011;7805;49.554;7.632;2023-05-18T00:24:16;8.07;;;2.30;;
15412;SDS011;7805;49.554;7.632;2023-05-18T00:26:43;11.60;;;2.70;;
15412;SDS011;7805;49.554;7.632;2023-05-18T00:29:10;10.63;;;2.90;;
15412;SDS011;7805;49.554;7.632;2023-05-18T00:31:36;8.20;;;2.43;;
15412;SDS011;7805;49.554;7.632;2023-05-18T00:36:32;8.27;;;3.33;;
15412;SDS011;7805;49.554;7.632;2023-05-18T00:38:58;9.70;;;2.90;;
15412;SDS011;7805;49.554;7.632;2023-05-18T00:41:24;9.30;;;3.50;;
15412;SDS011;7805;49.554;7.632;2023-05-18T00:43:51;7.90;;;2.83;;
15412;SDS011;7805;49.554;7.632;2023-05-18T00:46:17;8.73;;;2.70;;
15412;SDS011;7805;49.554;7.632;2023-05-18T00:48:43;9.93;;;3.27;;
15412;SDS011;7805;49.554;7.632;2023-05-18T00:51:09;8.20;;;2.77;;
15412;SDS011;7805;49.554;7.632;2023-05-18T00:53:36;8.73;;;2.60;;
15412;SDS011;7805;49.554;7.632;2023-05-18T00:56:02;9.73;;;2.77;;
15412;SDS011;7805;49.554;7.632;2023-05-18T00:58:28;8.07;;;3.63;;
15412;SDS011;7805;49.554;7.632;2023-05-18T01:00:55;5.10;;;2.50;;
15412;SDS011;7805;49.554;7.632;2023-05-18T01:03:21;7.17;;;2.47;;
15412;SDS011;7805;49.554;7.632;2023-05-18T01:05:46;9.73;;;3.00;;
15412;SDS011;7805;49.554;7.632;2023-05-18T01:08:23;9.17;;;2.63;;
15412;SDS011;7805;49.554;7.632;2023-05-18T01:10:51;9.43;;;3.23;;
15412;SDS011;7805;49.554;7.632;2023-05-18T01:13:22;7.03;;;2.80;;
15412;SDS011;7805;49.554;7.632;2023-05-18T01:16:19;8.93;;;3.17;;
15412;SDS011;7805;49.554;7.632;2023-05-18T01:18:55;5.13;;;2.60;;
15412;SDS011;7805;49.554;7.632;2023-05-18T01:26:49;6.77;;;2.67;;
15412;SDS011;7805;49.554;7.632;2023-05-18T01:29:21;4.17;;;2.37;;
15412;SDS011;7805;49.554;7.632;2023-05-18T01:31:48;10.03;;;3.03;;
15412;SDS011;7805;49.554;7.632;2023-05-18T01:34:14;6.27;;;3.10;;
15412;SDS011;7805;49.554;7.632;2023-05-18T01:36:40;6.03;;;2.60;;
15412;SDS011;7805;49.554;7.632;2023-05-18T01:39:06;8.13;;;2.83;;
15412;SDS011;7805;49.554;7.632;2023-05-18T01:41:34;5.87;;;2.40;;
15412;SDS011;7805;49.554;7.632;2023-05-18T01:46:34;4.73;;;2.37;;
15412;SDS011;7805;49.554;7.632;2023-05-18T01:49:03;7.17;;;3.03;;
15412;SDS011;7805;49.554;7.632;2023-05-18T01:51:49;5.30;;;2.50;;
15412;SDS011;7805;49.554;7.632;2023-05-18T01:54:18;5.60;;;2.67;;
15412;SDS011;7805;49.554;7.632;2023-05-18T01:56:46;5.00;;;2.60;;
15412;SDS011;7805;49.554;7.632;2023-05-18T01:59:14;5.63;;;2.67;;
15412;SDS011;7805;49.554;7.632;2023-05-18T02:01:40;6.70;;;2.47;;
15412;SDS011;7805;49.554;7.632;2023-05-18T02:04:08;5.70;;;2.60;;
15412;SDS011;7805;49.554;7.632;2023-05-18T02:06:34;7.23;;;2.93;;
15412;SDS011;7805;49.554;7.632;2023-05-18T02:09:01;8.10;;;3.53;;
15412;SDS011;7805;49.554;7.632;2023-05-18T02:11:28;9.57;;;3.17;;
15412;SDS011;7805;49.554;7.632;2023-05-18T02:13:53;8.10;;;3.10;;
15412;SDS011;7805;49.554;7.632;2023-05-18T02:16:19;5.63;;;2.50;;
15412;SDS011;7805;49.554;7.632;2023-05-18T02:18:45;7.50;;;2.73;;
15412;SDS011;7805;49.554;7.632;2023-05-18T02:21:11;8.27;;;3.37;;
15412;SDS011;7805;49.554;7.632;2023-05-18T02:23:37;12.20;;;5.50;;
15412;SDS011;7805;49.554;7.632;2023-05-18T02:26:03;10.43;;;5.27;;
15412;SDS011;7805;49.554;7.632;2023-05-18T02:28:29;12.83;;;5.77;;
15412;SDS011;7805;49.554;7.632;2023-05-18T02:31:03;19.27;;;8.23;;
15412;SDS011;7805;49.554;7.632;2023-05-18T02:33:30;21.03;;;8.77;;
15412;SDS011;7805;49.554;7.632;2023-05-18T02:36:03;18.40;;;7.90;;
15412;SDS011;7805;49.554;7.632;2023-05-18T02:38:39;16.90;;;8.53;;
15412;SDS011;7805;49.554;7.632;2023-05-18T02:41:07;21.97;;;9.77;;
15412;SDS011;7805;49.554;7.632;2023-05-18T02:43:33;13.30;;;6.47;;
15412;SDS011;7805;49.554;7.632;2023-05-18T02:45:59;11.60;;;5.00;;
15412;SDS011;7805;49.554;7.632;2023-05-18T02:48:25;11.00;;;4.17;;
15412;SDS011;7805;49.554;7.632;2023-05-18T02:50:51;15.80;;;5.37;;
15412;SDS011;7805;49.554;7.632;2023-05-18T02:53:17;8.57;;;4.07;;
15412;SDS011;7805;49.554;7.632;2023-05-18T02:55:42;7.00;;;3.97;;
15412;SDS011;7805;49.554;7.632;2023-05-18T02:58:10;10.73;;;3.27;;
15412;SDS011;7805;49.554;7.632;2023-05-18T03:00:37;8.33;;;3.27;;
15412;SDS011;7805;49.554;7.632;2023-05-18T03:03:03;6.63;;;2.97;;
15412;SDS011;7805;49.554;7.632;2023-05-18T03:05:28;6.23;;;2.63;;
15412;SDS011;7805;49.554;7.632;2023-05-18T03:07:54;10.50;;;3.30;;
15412;SDS011;7805;49.554;7.632;2023-05-18T03:10:20;7.83;;;3.37;;
15412;SDS011;7805;49.554;7.632;2023-05-18T03:12:46;8.47;;;2.93;;
15412;SDS011;7805;49.554;7.632;2023-05-18T03:15:12;5.97;;;3.10;;
15412;SDS011;7805;49.554;7.632;2023-05-18T03:17:40;9.60;;;3.03;;
15412;SDS011;7805;49.554;7.632;2023-05-18T03:20:08;7.60;;;3.27;;
15412;SDS011;7805;49.554;7.632;2023-05-18T03:22:35;5.10;;;3.20;;
15412;SDS011;7805;49.554;7.632;2023-05-18T03:25:02;4.43;;;2.80;;
15412;SDS011;7805;49.554;7.632;2023-05-18T03:27:30;6.30;;;2.80;;
15412;SDS011;7805;49.554;7.632;2023-05-18T03:29:56;11.30;;;3.30;;
15412;SDS011;7805;49.554;7.632;2023-05-18T03:32:22;6.97;;;2.97;;
15412;SDS011;7805;49.554;7.632;2023-05-18T03:34:52;8.17;;;3.30;;
15412;SDS011;7805;49.554;7.632;2023-05-18T03:37:18;10.00;;;3.70;;
15412;SDS011;7805;49.554;7.632;2023-05-18T03:39:44;6.67;;;3.53;;
15412;SDS011;7805;49.554;7.632;2023-05-18T03:42:10;8.07;;;3.57;;
15412;SDS011;7805;49.554;7.632;2023-05-18T03:44:35;7.10;;;3.30;;
15412;SDS011;7805;49.554;7.632;2023-05-18T03:47:01;7.33;;;3.37;;
15412;SDS011;7805;49.554;7.632;2023-05-18T03:49:26;6.03;;;3.03;;
15412;SDS011;7805;49.554;7.632;2023-05-18T03:51:53;8.00;;;3.43;;
15412;SDS011;7805;49.554;7.632;2023-05-18T03:54:20;4.80;;;2.90;;
15412;SDS011;7805;49.554;7.632;2023-05-18T03:56:46;5.70;;;2.87;;
15412;SDS011;7805;49.554;7.632;2023-05-18T03:59:12;6.60;;;3.13;;
15412;SDS011;7805;49.554;7.632;2023-05-18T04:01:38;6.17;;;3.93;;
15412;SDS011;7805;49.554;7.632;2023-05-18T04:04:06;7.40;;;3.70;;
15412;SDS011;7805;49.554;7.632;2023-05-18T04:06:32;7.83;;;4.10;;
15412;SDS011;7805;49.554;7.632;2023-05-18T04:08:59;9.80;;;4.87;;
15412;SDS011;7805;49.554;7.632;2023-05-18T04:11:28;9.90;;;6.13;;
15412;SDS011;7805;49.554;7.632;2023-05-18T04:13:53;8.80;;;4.23;;
15412;SDS011;7805;49.554;7.632;2023-05-18T04:16:19;11.07;;;4.73;;
15412;SDS011;7805;49.554;7.632;2023-05-18T04:18:45;6.63;;;3.83;;
15412;SDS011;7805;49.554;7.632;2023-05-18T04:21:11;6.83;;;3.57;;
15412;SDS011;7805;49.554;7.632;2023-05-18T04:23:37;7.07;;;3.23;;
15412;SDS011;7805;49.554;7.632;2023-05-18T04:26:03;4.93;;;2.93;;
15412;SDS011;7805;49.554;7.632;2023-05-18T04:28:29;8.47;;;5.03;;
15412;SDS011;7805;49.554;7.632;2023-05-18T04:30:56;8.57;;;6.30;;
15412;SDS011;7805;49.554;7.632;2023-05-18T04:33:22;9.17;;;5.53;;
15412;SDS011;7805;49.554;7.632;2023-05-18T04:35:49;11.00;;;6.10;;
15412;SDS011;7805;49.554;7.632;2023-05-18T04:38:18;12.93;;;8.80;;
15412;SDS011;7805;49.554;7.632;2023-05-18T04:40:47;9.80;;;6.27;;
15412;SDS011;7805;49.554;7.632;2023-05-18T04:43:14;16.47;;;9.03;;
15412;SDS011;7805;49.554;7.632;2023-05-18T04:45:41;15.43;;;7.20;;
15412;SDS011;7805;49.554;7.632;2023-05-18T04:48:10;10.73;;;6.20;;
15412;SDS011;7805;49.554;7.632;2023-05-18T04:50:36;10.63;;;5.00;;
15412;SDS011;7805;49.554;7.632;2023-05-18T04:53:01;7.13;;;3.97;;
15412;SDS011;7805;49.554;7.632;2023-05-18T04:55:29;8.37;;;4.57;;
15412;SDS011;7805;49.554;7.632;2023-05-18T04:57:57;8.93;;;4.20;;
15412;SDS011;7805;49.554;7.632;2023-05-18T05:00:25;8.97;;;5.53;;
15412;SDS011;7805;49.554;7.632;2023-05-18T05:02:53;10.57;;;5.43;;
15412;SDS011;7805;49.554;7.632;2023-05-18T05:05:19;15.97;;;7.20;;
15412;SDS011;7805;49.554;7.632;2023-05-18T05:07:49;13.70;;;7.27;;
15412;SDS011;7805;49.554;7.632;2023-05-18T05:10:16;11.87;;;6.63;;
15412;SDS011;7805;49.554;7.632;2023-05-18T05:12:43;11.73;;;6.67;;
15412;SDS011;7805;49.554;7.632;2023-05-18T05:15:09;10.40;;;6.90;;
15412;SDS011;7805;49.554;7.632;2023-05-18T05:17:34;11.40;;;8.10;;
15412;SDS011;7805;49.554;7.632;2023-05-18T05:20:00;10.33;;;8.17;;
15412;SDS011;7805;49.554;7.632;2023-05-18T05:22:26;17.07;;;10.30;;
15412;SDS011;7805;49.554;7.632;2023-05-18T05:24:51;12.37;;;9.73;;
15412;SDS011;7805;49.554;7.632;2023-05-18T05:27:17;12.93;;;8.93;;
15412;SDS011;7805;49.554;7.632;2023-05-18T05:29:46;10.10;;;4.40;;
15412;SDS011;7805;49.554;7.632;2023-05-18T05:32:14;6.23;;;3.20;;
15412;SDS011;7805;49.554;7.632;2023-05-18T05:34:40;5.30;;;2.60;;
15412;SDS011;7805;49.554;7.632;2023-05-18T05:37:09;9.60;;;3.83;;
15412;SDS011;7805;49.554;7.632;2023-05-18T05:39:35;5.57;;;3.00;;
15412;SDS011;7805;49.554;7.632;2023-05-18T05:42:00;9.40;;;2.97;;
15412;SDS011;7805;49.554;7.632;2023-05-18T05:44:26;9.30;;;3.23;;
15412;SDS011;7805;49.554;7.632;2023-05-18T05:46:51;5.77;;;2.87;;
15412;SDS011;7805;49.554;7.632;2023-05-18T05:49:17;5.60;;;2.97;;
15412;SDS011;7805;49.554;7.632;2023-05-18T05:51:43;8.20;;;3.30;;
15412;SDS011;7805;49.554;7.632;2023-05-18T05:54:09;8.17;;;3.27;;
15412;SDS011;7805;49.554;7.632;2023-05-18T05:56:34;5.10;;;3.33;;
15412;SDS011;7805;49.554;7.632;2023-05-18T05:59:00;9.43;;;3.20;;
15412;SDS011;7805;49.554;7.632;2023-05-18T06:01:26;6.83;;;2.93;;
15412;SDS011;7805;49.554;7.632;2023-05-18T06:03:51;6.57;;;2.57;;
15412;SDS011;7805;49.554;7.632;2023-05-18T06:06:17;6.00;;;2.83;;
15412;SDS011;7805;49.554;7.632;2023-05-18T06:08:42;7.87;;;3.00;;
15412;SDS011;7805;49.554;7.632;2023-05-18T06:11:08;3.73;;;2.40;;
15412;SDS011;7805;49.554;7.632;2023-05-18T06:13:35;8.20;;;2.50;;
15412;SDS011;7805;49.554;7.632;2023-05-18T06:16:01;9.00;;;2.80;;
15412;SDS011;7805;49.554;7.632;2023-05-18T06:18:26;11.30;;;5.33;;
15412;SDS011;7805;49.554;7.632;2023-05-18T06:20:52;6.57;;;3.00;;
15412;SDS011;7805;49.554;7.632;2023-05-18T06:23:17;4.60;;;2.63;;
15412;SDS011;7805;49.554;7.632;2023-05-18T06:25:47;9.27;;;3.80;;
15412;SDS011;7805;49.554;7.632;2023-05-18T06:28:13;12.67;;;6.87;;
15412;SDS011;7805;49.554;7.632;2023-05-18T06:30:39;6.93;;;2.73;;
15412;SDS011;7805;49.554;7.632;2023-05-18T06:33:05;8.10;;;2.03;;
15412;SDS011;7805;49.554;7.632;2023-05-18T06:35:32;9.23;;;2.40;;
15412;SDS011;7805;49.554;7.632;2023-05-18T06:37:58;6.57;;;2.20;;
15412;SDS011;7805;49.554;7.632;2023-05-18T06:40:23;6.80;;;2.30;;
15412;SDS011;7805;49.554;7.632;2023-05-18T06:42:49;6.00;;;2.67;;
15412;SDS011;7805;49.554;7.632;2023-05-18T06:45:14;4.73;;;2.30;;
15412;SDS011;7805;49.554;7.632;2023-05-18T06:47:40;7.43;;;2.50;;
15412;SDS011;7805;49.554;7.632;2023-05-18T06:50:07;7.30;;;2.60;;
15412;SDS011;7805;49.554;7.632;2023-05-18T06:52:33;8.20;;;2.70;;
15412;SDS011;7805;49.554;7.632;2023-05-18T06:54:59;5.43;;;2.33;;
15412;SDS011;7805;49.554;7.632;2023-05-18T06:57:28;8.53;;;2.50;;
15412;SDS011;7805;49.554;7.632;2023-05-18T06:59:53;9.33;;;2.33;;
15412;SDS011;7805;49.554;7.632;2023-05-18T07:02:19;7.23;;;2.60;;
15412;SDS011;7805;49.554;7.632;2023-05-18T07:04:45;4.57;;;2.07;;
15412;SDS011;7805;49.554;7.632;2023-05-18T07:07:12;7.43;;;2.53;;
15412;SDS011;7805;49.554;7.632;2023-05-18T07:09:37;6.97;;;2.47;;
15412;SDS011;7805;49.554;7.632;2023-05-18T07:12:06;6.20;;;2.30;;
15412;SDS011;7805;49.554;7.632;2023-05-18T07:14:31;5.17;;;2.17;;
15412;SDS011;7805;49.554;7.632;2023-05-18T07:16:57;9.07;;;2.67;;
15412;SDS011;7805;49.554;7.632;2023-05-18T07:19:23;8.60;;;2.43;;
15412;SDS011;7805;49.554;7.632;2023-05-18T07:21:48;4.40;;;1.80;;
15412;SDS011;7805;49.554;7.632;2023-05-18T07:24:14;6.37;;;2.30;;
15412;SDS011;7805;49.554;7.632;2023-05-18T07:26:40;5.63;;;1.93;;
15412;SDS011;7805;49.554;7.632;2023-05-18T07:29:05;3.70;;;2.03;;
15412;SDS011;7805;49.554;7.632;2023-05-18T07:31:31;5.60;;;2.30;;
15412;SDS011;7805;49.554;7.632;2023-05-18T07:33:57;6.47;;;2.53;;
15412;SDS011;7805;49.554;7.632;2023-05-18T07:36:23;7.03;;;2.40;;
15412;SDS011;7805;49.554;7.632;2023-05-18T07:38:51;7.60;;;2.00;;
15412;SDS011;7805;49.554;7.632;2023-05-18T07:41:19;6.90;;;2.30;;
15412;SDS011;7805;49.554;7.632;2023-05-18T07:43:46;7.00;;;2.43;;
15412;SDS011;7805;49.554;7.632;2023-05-18T07:46:16;9.17;;;2.20;;
15412;SDS011;7805;49.554;7.632;2023-05-18T07:48:41;4.77;;;2.63;;
15412;SDS011;7805;49.554;7.632;2023-05-18T07:51:09;8.87;;;2.30;;
15412;SDS011;7805;49.554;7.632;2023-05-18T07:53:34;5.77;;;2.17;;
15412;SDS011;7805;49.554;7.632;2023-05-18T07:56:01;7.70;;;3.03;;
15412;SDS011;7805;49.554;7.632;2023-05-18T07:58:28;7.37;;;2.50;;
15412;SDS011;7805;49.554;7.632;2023-05-18T08:00:53;7.80;;;2.77;;
15412;SDS011;7805;49.554;7.632;2023-05-18T08:03:19;6.63;;;2.80;;
15412;SDS011;7805;49.554;7.632;2023-05-18T08:05:45;7.30;;;2.73;;
15412;SDS011;7805;49.554;7.632;2023-05-18T08:08:10;6.60;;;2.10;;
15412;SDS011;7805;49.554;7.632;2023-05-18T08:10:39;4.67;;;2.13;;
15412;SDS011;7805;49.554;7.632;2023-05-18T08:13:05;7.17;;;2.40;;
15412;SDS011;7805;49.554;7.632;2023-05-18T08:15:31;6.27;;;2.60;;
15412;SDS011;7805;49.554;7.632;2023-05-18T08:17:56;7.23;;;2.67;;
15412;SDS011;7805;49.554;7.632;2023-05-18T08:20:22;6.83;;;2.67;;
15412;SDS011;7805;49.554;7.632;2023-05-18T08:22:49;3.80;;;2.10;;
15412;SDS011;7805;49.554;7.632;2023-05-18T08:25:15;5.50;;;2.40;;
15412;SDS011;7805;49.554;7.632;2023-05-18T08:27:40;5.17;;;2.30;;
15412;SDS011;7805;49.554;7.632;2023-05-18T08:30:06;7.97;;;2.50;;
15412;SDS011;7805;49.554;7.632;2023-05-18T08:32:32;12.03;;;2.80;;
15412;SDS011;7805;49.554;7.632;2023-05-18T08:35:01;6.80;;;2.37;;
15412;SDS011;7805;49.554;7.632;2023-05-18T08:37:29;7.60;;;2.40;;
15412;SDS011;7805;49.554;7.632;2023-05-18T08:39:55;14.90;;;3.60;;
15412;SDS011;7805;49.554;7.632;2023-05-18T08:44:57;4.50;;;2.47;;
15412;SDS011;7805;49.554;7.632;2023-05-18T08:47:36;7.90;;;2.77;;
15412;SDS011;7805;49.554;7.632;2023-05-18T08:50:02;6.87;;;2.57;;
15412;SDS011;7805;49.554;7.632;2023-05-18T08:52:29;8.20;;;2.70;;
15412;SDS011;7805;49.554;7.632;2023-05-18T08:54:59;7.07;;;2.70;;
15412;SDS011;7805;49.554;7.632;2023-05-18T08:57:29;8.43;;;2.83;;
15412;SDS011;7805;49.554;7.632;2023-05-18T09:00:00;8.40;;;2.93;;
15412;SDS011;7805;49.554;7.632;2023-05-18T09:02:28;7.00;;;2.60;;
15412;SDS011;7805;49.554;7.632;2023-05-18T09:04:55;4.83;;;2.93;;
15412;SDS011;7805;49.554;7.632;2023-05-18T09:07:21;7.53;;;2.63;;
15412;SDS011;7805;49.554;7.632;2023-05-18T09:09:47;8.57;;;2.90;;
15412;SDS011;7805;49.554;7.632;2023-05-18T09:12:13;9.80;;;5.47;;
15412;SDS011;7805;49.554;7.632;2023-05-18T09:14:41;10.27;;;3.10;;
15412;SDS011;7805;49.554;7.632;2023-05-18T09:17:08;6.43;;;2.87;;
15412;SDS011;7805;49.554;7.632;2023-05-18T09:19:34;7.87;;;3.10;;
15412;SDS011;7805;49.554;7.632;2023-05-18T09:22:00;9.50;;;3.57;;
15412;SDS011;7805;49.554;7.632;2023-05-18T09:24:25;4.43;;;2.00;;
15412;SDS011;7805;49.554;7.632;2023-05-18T09:26:51;7.00;;;3.27;;
15412;SDS011;7805;49.554;7.632;2023-05-18T09:29:20;6.83;;;2.60;;
15412;SDS011;7805;49.554;7.632;2023-05-18T09:31:47;6.90;;;2.30;;
15412;SDS011;7805;49.554;7.632;2023-05-18T09:34:14;9.07;;;3.60;;
15412;SDS011;7805;49.554;7.632;2023-05-18T09:36:39;9.10;;;5.40;;
15412;SDS011;7805;49.554;7.632;2023-05-18T09:39:07;8.60;;;4.10;;
15412;SDS011;7805;49.554;7.632;2023-05-18T09:41:34;8.20;;;3.53;;
15412;SDS011;7805;49.554;7.632;2023-05-18T09:44:03;5.50;;;3.00;;
15412;SDS011;7805;49.554;7.632;2023-05-18T09:46:36;9.67;;;3.20;;
15412;SDS011;7805;49.554;7.632;2023-05-18T09:49:03;8.57;;;3.43;;
15412;SDS011;7805;49.554;7.632;2023-05-18T09:51:32;5.80;;;2.97;;
15412;SDS011;7805;49.554;7.632;2023-05-18T09:54:02;5.93;;;2.70;;
15412;SDS011;7805;49.554;7.632;2023-05-18T09:56:29;7.67;;;3.40;;
15412;SDS011;7805;49.554;7.632;2023-05-18T09:58:55;9.93;;;3.37;;
15412;SDS011;7805;49.554;7.632;2023-05-18T10:01:22;8.37;;;2.70;;
15412;SDS011;7805;49.554;7.632;2023-05-18T10:03:47;7.23;;;3.10;;
15412;SDS011;7805;49.554;7.632;2023-05-18T10:06:13;7.90;;;3.17;;
15412;SDS011;7805;49.554;7.632;2023-05-18T10:08:43;8.03;;;2.67;;
15412;SDS011;7805;49.554;7.632;2023-05-18T10:11:09;8.20;;;2.90;;
15412;SDS011;7805;49.554;7.632;2023-05-18T10:13:35;5.83;;;3.10;;
15412;SDS011;7805;49.554;7.632;2023-05-18T10:16:02;7.60;;;3.53;;
15412;SDS011;7805;49.554;7.632;2023-05-18T10:18:36;5.83;;;2.50;;
15412;SDS011;7805;49.554;7.632;2023-05-18T10:21:03;6.63;;;2.93;;
15412;SDS011;7805;49.554;7.632;2023-05-18T10:23:30;6.03;;;2.67;;
15412;SDS011;7805;49.554;7.632;2023-05-18T10:25:56;7.73;;;3.20;;
15412;SDS011;7805;49.554;7.632;2023-05-18T10:28:41;9.63;;;2.43;;
15412;SDS011;7805;49.554;7.632;2023-05-18T10:31:09;5.40;;;2.50;;
15412;SDS011;7805;49.554;7.632;2023-05-18T10:33:35;5.37;;;2.67;;
15412;SDS011;7805;49.554;7.632;2023-05-18T10:36:02;6.70;;;2.83;;
15412;SDS011;7805;49.554;7.632;2023-05-18T10:38:29;11.17;;;3.03;;
15412;SDS011;7805;49.554;7.632;2023-05-18T10:40:56;8.00;;;2.70;;
15412;SDS011;7805;49.554;7.632;2023-05-18T10:43:24;4.40;;;2.57;;
15412;SDS011;7805;49.554;7.632;2023-05-18T10:45:53;7.47;;;3.00;;
15412;SDS011;7805;49.554;7.632;2023-05-18T10:48:25;6.40;;;2.60;;
15412;SDS011;7805;49.554;7.632;2023-05-18T10:50:52;5.50;;;2.83;;
15412;SDS011;7805;49.554;7.632;2023-05-18T10:53:22;7.18;;;2.60;;
15412;SDS011;7805;49.554;7.632;2023-05-18T10:55:51;8.70;;;2.40;;
15412;SDS011;7805;49.554;7.632;2023-05-18T10:58:21;11.07;;;3.90;;
15412;SDS011;7805;49.554;7.632;2023-05-18T11:00:51;8.23;;;3.03;;
15412;SDS011;7805;49.554;7.632;2023-05-18T11:03:21;5.82;;;2.58;;
15412;SDS011;7805;49.554;7.632;2023-05-18T11:05:50;8.02;;;2.78;;
15412;SDS011;7805;49.554;7.632;2023-05-18T11:08:26;9.45;;;3.30;;
15412;SDS011;7805;49.554;7.632;2023-05-18T11:11:02;7.22;;;2.97;;
15412;SDS011;7805;49.554;7.632;2023-05-18T11:13:32;7.40;;;2.70;;
15412;SDS011;7805;49.554;7.632;2023-05-18T11:27:08;8.30;;;3.70;;
15412;SDS011;7805;49.554;7.632;2023-05-18T11:29:39;4.43;;;2.42;;
15412;SDS011;7805;49.554;7.632;2023-05-18T11:32:22;7.70;;;3.22;;
15412;SDS011;7805;49.554;7.632;2023-05-18T11:34:50;8.93;;;2.50;;
15412;SDS011;7805;49.554;7.632;2023-05-18T11:38:02;7.82;;;2.90;;
15412;SDS011;7805;49.554;7.632;2023-05-18T11:40:03;5.93;;;2.63;;
15412;SDS011;7805;49.554;7.632;2023-05-18T11:42:33;6.20;;;2.72;;
15412;SDS011;7805;49.554;7.632;2023-05-18T11:45:04;5.87;;;2.63;;
15412;SDS011;7805;49.554;7.632;2023-05-18T11:47:34;8.10;;;3.20;;
15412;SDS011;7805;49.554;7.632;2023-05-18T11:50:00;6.55;;;2.72;;
15412;SDS011;7805;49.554;7.632;2023-05-18T11:52:30;7.65;;;2.60;;
15412;SDS011;7805;49.554;7.632;2023-05-18T11:54:59;7.93;;;3.07;;
15412;SDS011;7805;49.554;7.632;2023-05-18T11:57:25;6.73;;;3.03;;
15412;SDS011;7805;49.554;7.632;2023-05-18T12:00:06;6.18;;;2.70;;
15412;SDS011;7805;49.554;7.632;2023-05-18T12:02:34;6.30;;;2.33;;
15412;SDS011;7805;49.554;7.632;2023-05-18T12:05:00;8.02;;;3.83;;
15412;SDS011;7805;49.554;7.632;2023-05-18T12:07:27;6.65;;;3.17;;
15412;SDS011;7805;49.554;7.632;2023-05-18T12:09:57;6.60;;;2.67;;
15412;SDS011;7805;49.554;7.632;2023-05-18T12:12:30;6.50;;;3.28;;
15412;SDS011;7805;49.554;7.632;2023-05-18T12:15:01;4.57;;;2.45;;
15412;SDS011;7805;49.554;7.632;2023-05-18T12:20:05;6.32;;;2.40;;
15412;SDS011;7805;49.554;7.632;2023-05-18T12:22:32;5.55;;;2.53;;
15412;SDS011;7805;49.554;7.632;2023-05-18T12:24:58;15.18;;;11.65;;
15412;SDS011;7805;49.554;7.632;2023-05-18T12:27:23;5.38;;;2.60;;
15412;SDS011;7805;49.554;7.632;2023-05-18T12:29:50;6.80;;;3.05;;
15412;SDS011;7805;49.554;7.632;2023-05-18T12:32:16;4.93;;;3.20;;
15412;SDS011;7805;49.554;7.632;2023-05-18T12:34:42;5.82;;;2.70;;
15412;SDS011;7805;49.554;7.632;2023-05-18T12:37:08;11.02;;;2.85;;
15412;SDS011;7805;49.554;7.632;2023-05-18T12:39:35;5.35;;;2.80;;
15412;SDS011;7805;49.554;7.632;2023-05-18T12:42:08;6.15;;;2.58;;
15412;SDS011;7805;49.554;7.632;2023-05-18T12:44:38;4.85;;;2.55;;
15412;SDS011;7805;49.554;7.632;2023-05-18T12:47:06;3.83;;;2.33;;
15412;SDS011;7805;49.554;7.632;2023-05-18T12:49:34;11.88;;;2.88;;
15412;SDS011;7805;49.554;7.632;2023-05-18T12:52:06;8.20;;;2.70;;
15412;SDS011;7805;49.554;7.632;2023-05-18T12:54:46;9.93;;;2.30;;
15412;SDS011;7805;49.554;7.632;2023-05-18T12:57:19;6.43;;;3.05;;
15412;SDS011;7805;49.554;7.632;2023-05-18T12:59:49;6.30;;;2.67;;
15412;SDS011;7805;49.554;7.632;2023-05-18T13:05:00;4.28;;;2.50;;
15412;SDS011;7805;49.554;7.632;2023-05-18T13:07:26;6.80;;;2.67;;
15412;SDS011;7805;49.554;7.632;2023-05-18T13:09:52;5.82;;;2.60;;
15412;SDS011;7805;49.554;7.632;2023-05-18T13:12:33;8.50;;;2.38;;
15412;SDS011;7805;49.554;7.632;2023-05-18T13:15:06;8.23;;;2.67;;
15412;SDS011;7805;49.554;7.632;2023-05-18T13:17:36;4.13;;;2.28;;
15412;SDS011;7805;49.554;7.632;2023-05-18T13:20:02;3.45;;;2.30;;
15412;SDS011;7805;49.554;7.632;2023-05-18T13:22:35;7.32;;;2.95;;
15412;SDS011;7805;49.554;7.632;2023-05-18T13:25:01;6.15;;;2.17;;
15412;SDS011;7805;49.554;7.632;2023-05-18T13:27:27;9.38;;;2.67;;
15412;SDS011;7805;49.554;7.632;2023-05-18T13:29:53;7.82;;;2.13;;
15412;SDS011;7805;49.554;7.632;2023-05-18T13:32:22;5.07;;;2.55;;
15412;SDS011;7805;49.554;7.632;2023-05-18T13:34:48;3.80;;;1.98;;
15412;SDS011;7805;49.554;7.632;2023-05-18T13:37:13;6.70;;;2.63;;
15412;SDS011;7805;49.554;7.632;2023-05-18T13:39:39;5.25;;;2.20;;
15412;SDS011;7805;49.554;7.632;2023-05-18T13:42:05;7.60;;;2.35;;
15412;SDS011;7805;49.554;7.632;2023-05-18T13:44:32;4.35;;;2.33;;
15412;SDS011;7805;49.554;7.632;2023-05-18T13:46:58;4.03;;;1.92;;
15412;SDS011;7805;49.554;7.632;2023-05-18T13:49:23;6.82;;;2.58;;
15412;SDS011;7805;49.554;7.632;2023-05-18T13:51:49;5.38;;;2.33;;
15412;SDS011;7805;49.554;7.632;2023-05-18T13:54:14;8.60;;;2.50;;
15412;SDS011;7805;49.554;7.632;2023-05-18T13:56:40;8.70;;;2.85;;
15412;SDS011;7805;49.554;7.632;2023-05-18T13:59:05;12.48;;;2.90;;
15412;SDS011;7805;49.554;7.632;2023-05-18T14:01:31;5.82;;;2.60;;
15412;SDS011;7805;49.554;7.632;2023-05-18T14:03:56;5.63;;;2.90;;
15412;SDS011;7805;49.554;7.632;2023-05-18T14:06:22;7.20;;;2.90;;
15412;SDS011;7805;49.554;7.632;2023-05-18T14:08:48;4.95;;;2.10;;
15412;SDS011;7805;49.554;7.632;2023-05-18T14:11:13;7.10;;;2.17;;
15412;SDS011;7805;49.554;7.632;2023-05-18T14:13:39;9.88;;;2.42;;
15412;SDS011;7805;49.554;7.632;2023-05-18T14:16:05;5.28;;;2.97;;
15412;SDS011;7805;49.554;7.632;2023-05-18T14:18:31;5.68;;;2.55;;
15412;SDS011;7805;49.554;7.632;2023-05-18T14:20:56;8.75;;;3.15;;
15412;SDS011;7805;49.554;7.632;2023-05-18T14:23:26;13.50;;;3.58;;
15412;SDS011;7805;49.554;7.632;2023-05-18T14:25:52;6.22;;;2.97;;
15412;SDS011;7805;49.554;7.632;2023-05-18T14:28:17;6.50;;;2.45;;
15412;SDS011;7805;49.554;7.632;2023-05-18T14:30:43;8.43;;;3.10;;
15412;SDS011;7805;49.554;7.632;2023-05-18T14:33:08;6.32;;;2.97;;
15412;SDS011;7805;49.554;7.632;2023-05-18T14:35:34;7.63;;;3.08;;
15412;SDS011;7805;49.554;7.632;2023-05-18T14:38:00;4.15;;;2.78;;
15412;SDS011;7805;49.554;7.632;2023-05-18T14:40:26;7.00;;;2.60;;
15412;SDS011;7805;49.554;7.632;2023-05-18T14:42:52;5.10;;;2.72;;
15412;SDS011;7805;49.554;7.632;2023-05-18T14:45:18;4.80;;;2.63;;
15412;SDS011;7805;49.554;7.632;2023-05-18T14:47:44;5.85;;;2.42;;
15412;SDS011;7805;49.554;7.632;2023-05-18T14:50:09;7.75;;;2.60;;
15412;SDS011;7805;49.554;7.632;2023-05-18T14:52:35;8.80;;;3.00;;
15412;SDS011;7805;49.554;7.632;2023-05-18T14:55:01;8.73;;;2.80;;
15412;SDS011;7805;49.554;7.632;2023-05-18T14:57:26;5.20;;;2.50;;
15412;SDS011;7805;49.554;7.632;2023-05-18T14:59:52;6.97;;;2.30;;
15412;SDS011;7805;49.554;7.632;2023-05-18T15:02:17;6.93;;;2.97;;
15412;SDS011;7805;49.554;7.632;2023-05-18T15:04:43;4.10;;;2.22;;
15412;SDS011;7805;49.554;7.632;2023-05-18T15:07:09;9.18;;;2.83;;
15412;SDS011;7805;49.554;7.632;2023-05-18T15:09:34;6.35;;;2.60;;
15412;SDS011;7805;49.554;7.632;2023-05-18T15:12:00;11.20;;;5.50;;
15412;SDS011;7805;49.554;7.632;2023-05-18T15:14:26;6.93;;;3.20;;
15412;SDS011;7805;49.554;7.632;2023-05-18T15:16:51;8.85;;;2.67;;
15412;SDS011;7805;49.554;7.632;2023-05-18T15:19:17;6.80;;;2.78;;
15412;SDS011;7805;49.554;7.632;2023-05-18T15:21:43;6.97;;;3.13;;
15412;SDS011;7805;49.554;7.632;2023-05-18T15:24:08;6.68;;;2.83;;
15412;SDS011;7805;49.554;7.632;2023-05-18T15:26:34;7.47;;;2.65;;
15412;SDS011;7805;49.554;7.632;2023-05-18T15:29:00;7.38;;;3.08;;
15412;SDS011;7805;49.554;7.632;2023-05-18T15:31:25;4.95;;;2.45;;